Time;durP1;ratioP1;P1;durP2;ratioP2;P2;SDS_P1;SDS_P2;PMS_P1;PMS_P2;Temp;Humidity;BMP_temperature;BMP_pressure;BME280_temperature;BME280_humidity;BME280_pressure;Samples;Min_cycle;Max_cycle;Signal;HPM_P1;HPM_P2
2021/05/18 00:05:25;;;;;;;17.92;11.00;;;10.80;99.90;;;;;;12207454;28;20600;-78
2021/05/18 00:11:43;;;;;;;16.13;10.30;;;10.90;99.90;;;;;;12210203;28;20056;-78
2021/05/18 00:17:46;;;;;;;16.00;10.77;;;10.80;99.90;;;;;;12211415;28;20178;-77
2021/05/18 00:23:48;;;;;;;14.70;10.20;;;10.70;99.90;;;;;;12212485;28;20127;-77
2021/05/18 00:29:50;;;;;;;15.45;10.57;;;10.60;99.90;;;;;;12198834;28;20075;-78
2021/05/18 00:35:51;;;;;;;16.70;11.13;;;10.50;99.90;;;;;;12215461;28;20509;-78
2021/05/18 00:41:53;;;;;;;17.90;11.48;;;10.40;99.90;;;;;;12211152;28;20511;-78
2021/05/18 00:47:56;;;;;;;15.75;10.73;;;10.40;99.90;;;;;;12213656;28;20138;-78
2021/05/18 00:54:01;;;;;;;17.25;11.13;;;10.50;99.90;;;;;;12199605;28;20055;-78
2021/05/18 01:00:04;;;;;;;16.98;11.38;;;10.70;99.90;;;;;;12206842;28;20694;-78
2021/05/18 01:06:28;;;;;;;17.70;11.27;;;10.40;99.90;;;;;;12215630;28;20051;-78
2021/05/18 01:12:30;;;;;;;18.73;9.97;;;10.60;99.90;;;;;;12205750;28;20074;-78
2021/05/18 01:18:42;;;;;;;19.15;11.07;;;10.50;99.90;;;;;;12207636;28;20390;-78
2021/05/18 01:24:44;;;;;;;18.80;10.88;;;10.50;99.90;;;;;;12222271;28;20040;-78
2021/05/18 01:30:46;;;;;;;19.60;10.98;;;10.50;99.90;;;;;;12202571;28;20571;-78
2021/05/18 01:36:48;;;;;;;19.73;9.95;;;10.40;99.90;;;;;;12204581;28;20139;-78
2021/05/18 01:42:52;;;;;;;16.70;10.15;;;10.40;99.90;;;;;;12209471;28;20040;-78
2021/05/18 01:49:00;;;;;;;17.52;9.80;;;10.40;99.90;;;;;;12202169;28;20054;-78
2021/05/18 01:55:02;;;;;;;19.50;9.82;;;10.40;99.90;;;;;;12204561;28;20059;-78
2021/05/18 02:01:04;;;;;;;20.05;10.38;;;10.30;99.90;;;;;;12215785;28;20090;-78
2021/05/18 02:07:35;;;;;;;19.38;10.48;;;10.30;99.90;;;;;;12208912;28;20154;-78
2021/05/18 02:13:42;;;;;;;19.55;10.55;;;10.30;99.90;;;;;;12219585;28;20085;-78
2021/05/18 02:26:15;;;;;;;20.33;11.48;;;10.30;99.90;;;;;;12202658;28;20084;-78
2021/05/18 02:32:16;;;;;;;20.70;11.35;;;10.30;99.90;;;;;;12209584;28;20075;-78
2021/05/18 02:38:18;;;;;;;24.92;12.00;;;10.20;99.90;;;;;;12213591;28;20139;-77
2021/05/18 02:44:30;;;;;;;24.63;12.15;;;10.30;99.90;;;;;;12212522;28;20849;-78
2021/05/18 02:50:32;;;;;;;28.38;12.27;;;10.20;99.90;;;;;;12209571;28;20075;-78
2021/05/18 03:02:42;;;;;;;24.27;11.70;;;10.00;99.90;;;;;;12217208;28;20461;-78
2021/05/18 03:08:44;;;;;;;29.02;12.55;;;9.80;99.90;;;;;;12211810;28;20109;-78
2021/05/18 03:14:46;;;;;;;22.48;11.63;;;9.70;99.90;;;;;;12241559;28;20052;-78
2021/05/18 03:20:48;;;;;;;22.83;12.35;;;9.40;99.90;;;;;;12254277;28;20618;-78
2021/05/18 03:26:51;;;;;;;24.83;11.80;;;9.40;99.90;;;;;;12225809;28;20476;-78
2021/05/18 03:39:13;;;;;;;25.48;11.35;;;9.30;99.90;;;;;;12225403;28;20048;-78
2021/05/18 04:04:18;;;;;;;33.55;12.98;;;9.30;99.90;;;;;;12214954;28;20126;-78
2021/05/18 04:10:41;;;;;;;26.90;12.57;;;9.30;99.90;;;;;;12207785;28;20055;-78
2021/05/18 04:16:59;;;;;;;21.30;12.20;;;9.30;99.90;;;;;;12213665;28;20458;-78
2021/05/18 05:00:47;;;;;;;24.88;12.68;;;9.70;99.90;;;;;;12203441;29;20078;-79
2021/05/18 05:06:57;;;;;;;21.20;12.52;;;9.60;99.90;;;;;;12208637;29;20052;-79
2021/05/18 05:19:07;;;;;;;22.27;12.13;;;9.60;99.90;;;;;;12202961;28;20052;-79
2021/05/18 05:25:09;;;;;;;25.15;14.00;;;9.70;99.90;;;;;;12184632;28;20047;-79
2021/05/18 05:31:11;;;;;;;26.27;14.13;;;9.70;99.90;;;;;;12212626;29;20601;-79
2021/05/18 05:37:13;;;;;;;23.17;13.52;;;9.80;99.90;;;;;;12197974;28;20110;-79
2021/05/18 05:43:15;;;;;;;26.08;12.65;;;10.00;99.90;;;;;;12202319;28;20158;-79
2021/05/18 05:49:17;;;;;;;23.15;12.93;;;10.10;99.90;;;;;;12196176;29;20055;-79
2021/05/18 05:55:18;;;;;;;27.10;13.38;;;10.70;99.90;;;;;;12198374;28;20086;-79
2021/05/18 06:01:20;;;;;;;19.70;13.00;;;10.70;99.90;;;;;;12195336;29;20071;-79
2021/05/18 06:07:22;;;;;;;21.80;11.77;;;10.80;99.90;;;;;;12278658;28;20131;-79
2021/05/18 06:51:28;;;;;;;9.73;6.85;;;12.00;99.90;;;;;;12214585;28;20200;-80
2021/05/18 06:57:35;;;;;;;14.93;7.82;;;12.00;99.90;;;;;;12199863;29;20059;-80
2021/05/18 07:03:43;;;;;;;10.82;6.68;;;11.70;99.90;;;;;;12203350;29;20055;-80
2021/05/18 07:09:45;;;;;;;12.73;7.63;;;11.30;99.90;;;;;;12198644;28;20090;-80
2021/05/18 07:15:46;;;;;;;11.95;7.50;;;11.80;99.90;;;;;;12205135;29;20139;-79
2021/05/18 07:21:48;;;;;;;13.82;8.07;;;12.20;99.90;;;;;;12196888;28;20502;-80
2021/05/18 07:27:50;;;;;;;13.95;7.65;;;12.10;99.90;;;;;;12200875;28;20086;-79
2021/05/18 07:33:52;;;;;;;11.07;7.10;;;12.00;99.90;;;;;;12193567;29;20086;-80
2021/05/18 07:39:54;;;;;;;12.18;6.22;;;12.00;99.90;;;;;;12199518;28;20052;-80
2021/05/18 07:46:00;;;;;;;10.25;6.65;;;12.40;99.90;;;;;;12207697;28;20083;-79
2021/05/18 08:10:59;;;;;;;14.82;5.85;;;13.10;99.90;;;;;;12208747;28;20071;-80
2021/05/18 08:17:20;;;;;;;11.25;5.78;;;13.00;99.90;;;;;;12207696;28;20590;-80
2021/05/18 10:36:42;;;;;;;22.13;13.13;;;14.70;99.90;;;;;;12208259;28;20174;-81
2021/05/18 10:43:05;;;;;;;19.67;11.63;;;14.30;99.90;;;;;;12215777;28;20897;-81
2021/05/18 10:49:09;;;;;;;19.90;12.20;;;14.90;99.90;;;;;;12211169;28;20060;-81
2021/05/18 10:55:14;;;;;;;18.75;11.82;;;15.50;99.90;;;;;;12206766;28;20080;-81
2021/05/18 11:01:16;;;;;;;14.57;10.70;;;15.60;99.90;;;;;;12196153;28;20052;-81
2021/05/18 11:07:22;;;;;;;15.23;9.27;;;16.10;99.90;;;;;;12206792;28;20044;-81
2021/05/18 11:13:24;;;;;;;14.90;7.97;;;16.90;99.90;;;;;;12209361;28;20129;-81
2021/05/18 11:19:25;;;;;;;13.75;8.60;;;17.60;99.90;;;;;;12208915;28;20062;-81
2021/05/18 11:25:28;;;;;;;14.48;8.20;;;17.00;99.90;;;;;;12210634;28;20179;-81
2021/05/18 11:31:30;;;;;;;13.88;7.28;;;16.70;99.90;;;;;;12209104;28;20131;-81
2021/05/18 11:37:32;;;;;;;14.18;8.10;;;16.40;99.90;;;;;;12212388;28;20497;-81
2021/05/18 11:43:37;;;;;;;12.15;7.55;;;16.10;99.90;;;;;;12206822;28;20047;-82
2021/05/18 11:49:46;;;;;;;12.98;7.93;;;15.90;99.90;;;;;;12217495;28;20055;-81
2021/05/18 11:55:48;;;;;;;10.23;6.53;;;15.60;99.90;;;;;;12218059;28;20503;-82
2021/05/18 12:01:55;;;;;;;11.35;7.53;;;14.90;99.90;;;;;;12206624;28;20714;-81
2021/05/18 12:07:57;;;;;;;10.52;6.10;;;15.00;99.90;;;;;;12238921;28;20077;-81
2021/05/18 12:14:08;;;;;;;10.23;6.50;;;14.60;99.90;;;;;;12215228;28;20055;-80
2021/05/18 12:20:16;;;;;;;13.30;6.70;;;14.30;99.90;;;;;;12219044;28;20055;-81
2021/05/18 12:26:19;;;;;;;21.58;10.65;;;13.90;99.90;;;;;;12216871;28;20074;-80
2021/05/18 12:32:39;;;;;;;22.00;11.75;;;13.30;99.90;;;;;;12208570;28;20043;-79
2021/05/18 12:38:40;;;;;;;13.30;7.78;;;13.10;99.90;;;;;;12210156;28;20085;-81
2021/05/18 12:44:59;;;;;;;10.13;7.38;;;12.80;99.90;;;;;;12208192;28;20044;-80
2021/05/18 12:51:18;;;;;;;10.27;8.02;;;12.50;99.90;;;;;;12215910;28;20047;-79
2021/05/18 12:57:21;;;;;;;;;;;12.50;99.90;;;;;;12203843;28;20055;-79
2021/05/18 13:03:23;;;;;;;7.88;6.70;;;12.40;99.90;;;;;;12199177;28;19927;-81
2021/05/18 13:09:29;;;;;;;7.90;6.90;;;12.30;99.90;;;;;;12210440;28;20052;-80
2021/05/18 13:15:32;;;;;;;10.68;7.35;;;12.20;99.90;;;;;;12218730;28;20500;-79
2021/05/18 13:21:43;;;;;;;10.90;7.07;;;12.40;99.90;;;;;;12221790;28;20941;-80
2021/05/18 13:27:51;;;;;;;10.68;7.40;;;12.40;99.90;;;;;;12210184;28;20460;-80
2021/05/18 13:33:53;;;;;;;9.50;7.30;;;12.70;99.90;;;;;;12204585;28;20079;-80
2021/05/18 13:39:59;;;;;;;10.77;7.78;;;12.90;99.90;;;;;;12209721;28;20048;-80
2021/05/18 13:46:02;;;;;;;11.32;7.70;;;13.00;99.90;;;;;;12212869;28;20074;-79
2021/05/18 13:52:04;;;;;;;12.82;8.57;;;12.90;99.90;;;;;;12202721;28;20052;-80
2021/05/18 13:58:06;;;;;;;13.57;8.30;;;13.20;99.90;;;;;;12258918;28;20126;-80
2021/05/18 14:04:08;;;;;;;10.57;7.60;;;13.20;99.90;;;;;;12223116;28;20052;-80
2021/05/18 14:10:10;;;;;;;12.40;8.15;;;13.40;99.90;;;;;;12201501;28;20151;-80
2021/05/18 14:16:15;;;;;;;12.65;8.80;;;13.50;99.90;;;;;;12201400;28;20072;-80
2021/05/18 14:22:17;;;;;;;12.13;9.48;;;13.10;99.90;;;;;;12201757;28;20488;-79
2021/05/18 14:28:20;;;;;;;13.65;9.68;;;12.60;99.90;;;;;;12200434;28;20150;-79
2021/05/18 14:34:22;;;;;;;13.70;9.60;;;12.30;99.90;;;;;;12217896;28;20504;-87
2021/05/18 14:59:19;;;;;;;14.70;11.43;;;11.80;99.90;;;;;;12205926;28;20712;-80
2021/05/18 15:05:22;;;;;;;15.98;10.82;;;11.70;99.90;;;;;;12202881;28;20124;-80
2021/05/18 15:11:24;;;;;;;13.73;10.23;;;12.20;99.90;;;;;;12222540;28;20051;-80
2021/05/18 15:17:26;;;;;;;12.30;9.70;;;13.10;99.90;;;;;;12207077;28;20055;-81
2021/05/18 15:23:28;;;;;;;14.93;9.57;;;12.90;99.90;;;;;;12210961;28;20047;-80
2021/05/18 15:29:30;;;;;;;12.77;9.68;;;12.70;99.90;;;;;;12202028;28;20143;-80
2021/05/18 15:35:32;;;;;;;11.50;9.68;;;12.70;99.90;;;;;;12201254;28;20094;-80
2021/05/18 15:41:34;;;;;;;12.43;10.05;;;12.60;99.90;;;;;;12201105;28;20045;-80
2021/05/18 15:47:36;;;;;;;14.18;9.60;;;12.50;99.90;;;;;;12216472;28;20135;-80
2021/05/18 15:53:39;;;;;;;15.45;10.15;;;12.80;99.90;;;;;;12203822;28;20885;-80
2021/05/18 15:59:43;;;;;;;12.55;10.05;;;12.60;99.90;;;;;;12191323;28;20213;-80
2021/05/18 16:05:45;;;;;;;10.77;9.25;;;12.50;99.90;;;;;;12195207;28;20048;-80
2021/05/18 16:11:47;;;;;;;12.38;10.23;;;12.30;99.90;;;;;;12200477;28;20072;-80
2021/05/18 16:17:49;;;;;;;14.43;10.95;;;12.20;99.90;;;;;;12206774;28;20102;-80
2021/05/18 16:23:54;;;;;;;11.85;9.07;;;12.10;99.90;;;;;;12201633;28;20044;-80
2021/05/18 16:29:57;;;;;;;9.80;8.38;;;12.20;99.90;;;;;;12201969;28;20553;-80
2021/05/18 16:35:58;;;;;;;5.88;4.28;;;12.50;99.90;;;;;;12190178;28;20070;-80
2021/05/18 16:42:00;;;;;;;8.43;3.65;;;12.00;99.90;;;;;;12201647;28;20629;-80
2021/05/18 16:48:03;;;;;;;6.88;2.90;;;11.60;99.90;;;;;;12210815;28;20055;-79
2021/05/18 16:54:10;;;;;;;4.82;3.22;;;11.60;99.90;;;;;;12197497;28;20055;-79
2021/05/18 17:00:15;;;;;;;5.22;3.08;;;11.40;99.90;;;;;;12204268;28;20148;-79
2021/05/18 17:06:17;;;;;;;7.25;3.63;;;11.60;99.90;;;;;;12210870;28;20097;-78
2021/05/18 17:12:19;;;;;;;5.20;3.13;;;11.80;99.90;;;;;;12208664;28;20142;-79
2021/05/18 17:18:21;;;;;;;4.80;3.15;;;11.90;99.90;;;;;;12210704;28;20070;-78
2021/05/18 17:24:23;;;;;;;4.65;3.08;;;12.00;99.90;;;;;;12208071;28;20052;-79
2021/05/18 17:30:26;;;;;;;4.03;2.30;;;13.30;99.90;;;;;;12206211;28;20052;-78
2021/05/18 17:36:28;;;;;;;2.70;1.73;;;14.90;99.90;;;;;;12156309;28;20063;-79
2021/05/18 17:42:30;;;;;;;3.35;1.85;;;16.60;99.90;;;;;;12163156;28;20047;-79
2021/05/18 17:48:32;;;;;;;4.93;1.70;;;16.80;99.90;;;;;;12155916;29;20102;-79
2021/05/18 17:54:36;;;;;;;2.70;1.58;;;16.00;99.90;;;;;;12187411;29;20059;-79
2021/05/18 18:00:39;;;;;;;2.22;1.63;;;15.40;99.90;;;;;;12196004;29;20059;-79
2021/05/18 18:06:40;;;;;;;4.47;1.65;;;15.30;99.90;;;;;;12199909;28;20086;-79
2021/05/18 18:12:42;;;;;;;3.33;2.25;;;14.70;99.90;;;;;;12181692;28;20459;-79
2021/05/18 18:18:47;;;;;;;5.20;2.60;;;14.20;99.90;;;;;;12177677;28;20501;-79
2021/05/18 18:24:48;;;;;;;5.72;3.22;;;13.90;99.90;;;;;;12192400;28;20047;-79
2021/05/18 18:30:50;;;;;;;4.95;2.90;;;13.20;99.90;;;;;;12203678;28;20556;-79
2021/05/18 18:36:53;;;;;;;8.27;3.53;;;12.80;99.90;;;;;;12205197;28;20508;-79
2021/05/18 18:42:55;;;;;;;6.05;2.75;;;12.30;99.90;;;;;;12206537;28;20501;-79
2021/05/18 18:48:57;;;;;;;4.47;2.22;;;11.90;99.90;;;;;;12203458;28;20064;-78
2021/05/18 18:54:59;;;;;;;4.00;2.50;;;11.70;99.90;;;;;;12200052;28;20140;-78
2021/05/18 19:01:01;;;;;;;6.60;2.85;;;11.30;99.90;;;;;;12248549;28;20044;-78
2021/05/18 19:07:10;;;;;;;6.28;3.50;;;10.90;99.90;;;;;;12171517;28;20052;-78
2021/05/18 19:13:13;;;;;;;6.75;3.58;;;10.70;99.90;;;;;;12149187;28;20064;-78
2021/05/18 19:19:16;;;;;;;8.07;4.10;;;10.20;99.90;;;;;;12148529;28;21428;-78
2021/05/18 19:25:18;;;;;;;5.32;3.80;;;9.90;99.90;;;;;;12154025;28;20095;-78
2021/05/18 19:31:20;;;;;;;7.63;4.35;;;9.70;99.90;;;;;;12151882;28;20178;-78
2021/05/18 19:37:27;;;;;;;7.35;4.20;;;9.60;99.90;;;;;;12142557;29;20060;-78
2021/05/18 19:50:07;;;;;;;5.53;3.08;;;9.70;99.90;;;;;;12199889;28;20095;-78
2021/05/18 19:56:34;;;;;;;6.90;3.45;;;9.80;99.90;;;;;;12218547;28;20063;-78
2021/05/18 20:27:05;;;;;;;5.75;3.92;;;9.90;99.90;;;;;;12155510;28;20052;-77
2021/05/18 20:33:11;;;;;;;4.80;3.60;;;10.00;99.90;;;;;;12184517;28;20044;-77
2021/05/18 20:39:16;;;;;;;6.03;3.97;;;10.30;99.90;;;;;;12209855;29;21040;-77
2021/05/18 20:45:19;;;;;;;6.57;4.80;;;10.50;99.90;;;;;;12180371;28;20071;-78
2021/05/18 20:51:20;;;;;;;6.78;5.20;;;10.50;99.90;;;;;;12179410;28;20044;-77
2021/05/18 20:57:22;;;;;;;8.50;5.70;;;10.60;99.90;;;;;;12202367;28;20143;-77
2021/05/18 21:03:25;;;;;;;9.07;5.93;;;10.70;99.90;;;;;;12206815;28;20778;-78
2021/05/18 21:09:39;;;;;;;8.32;6.50;;;10.70;99.90;;;;;;12213842;28;20143;-77
2021/05/18 21:15:51;;;;;;;9.02;6.95;;;10.60;99.90;;;;;;12203199;28;20421;-77
2021/05/18 21:21:53;;;;;;;8.30;6.78;;;10.50;99.90;;;;;;12205284;28;20505;-77
2021/05/18 21:27:55;;;;;;;11.73;6.53;;;10.30;99.90;;;;;;12204780;28;20047;-77
2021/05/18 21:33:56;;;;;;;11.75;7.85;;;10.10;99.90;;;;;;12205041;28;20080;-77
2021/05/18 21:40:04;;;;;;;10.88;7.53;;;10.00;99.90;;;;;;12218586;28;20135;-78
2021/05/18 21:46:06;;;;;;;9.95;7.93;;;9.90;99.90;;;;;;12203471;28;20139;-77
2021/05/18 21:52:09;;;;;;;11.13;7.78;;;9.80;99.90;;;;;;12204937;28;20043;-77
2021/05/18 21:58:10;;;;;;;11.18;7.95;;;9.80;99.90;;;;;;12198760;28;20079;-77
2021/05/18 22:04:12;;;;;;;12.57;7.55;;;9.80;99.90;;;;;;12212805;28;20439;-78
2021/05/18 22:10:21;;;;;;;10.10;7.68;;;9.60;99.90;;;;;;12209292;28;20158;-77
2021/05/18 22:29:11;;;;;;;12.02;9.15;;;9.30;99.90;;;;;;12209056;28;20043;-77
2021/05/18 22:35:16;;;;;;;11.38;8.85;;;9.20;99.90;;;;;;12207570;28;20121;-77
2021/05/18 22:41:18;;;;;;;;;;;9.20;99.90;;;;;;12205778;28;20056;-78
2021/05/18 22:47:20;;;;;;;13.50;10.45;;;9.20;99.90;;;;;;12196218;28;19950;-77
2021/05/18 22:53:22;;;;;;;14.02;11.10;;;9.20;99.90;;;;;;12199356;28;20079;-77
2021/05/18 22:59:34;;;;;;;15.68;11.65;;;9.30;99.90;;;;;;12210788;28;20070;-77
2021/05/18 23:05:46;;;;;;;16.27;10.85;;;9.40;99.90;;;;;;12204375;28;20139;-77
2021/05/18 23:11:47;;;;;;;15.27;11.30;;;9.10;99.90;;;;;;12206517;28;20105;-77
2021/05/18 23:17:49;;;;;;;16.35;13.02;;;9.00;99.90;;;;;;12201840;28;20059;-77
2021/05/18 23:23:51;;;;;;;17.38;13.18;;;9.00;99.90;;;;;;12212622;28;20130;-77
2021/05/18 23:29:53;;;;;;;15.77;12.77;;;9.30;99.90;;;;;;12209960;28;20040;-77
2021/05/18 23:35:55;;;;;;;15.85;11.07;;;9.20;99.90;;;;;;12203906;28;20098;-77
2021/05/18 23:41:57;;;;;;;13.95;10.85;;;9.10;99.90;;;;;;12198457;28;20131;-77
2021/05/18 23:47:59;;;;;;;16.25;10.65;;;9.10;99.90;;;;;;12202418;28;20221;-77
2021/05/18 23:54:01;;;;;;;19.50;10.93;;;9.10;99.90;;;;;;12212683;28;20098;-78
